aviador You're here:

OMDB Decoded Metar

DUBAI in UNITED ARAB EMIRATES
Report Time2018-05-21 20:00:00
UTC Time2018-05-21 20:38:10
Flight Rules vfr VFR
Wind030° at 05 kt
W.Decomp.*RWY 30: 0.1 kt HW 5.0 kt RCW
W.Rank030° ranks 29
Current wind is below 030° avg. (6.7)
Visibility9999 m
Phenomena:N/A
Clouds:N/A
Expected CloudBase > 6,400 ft AGL from Temp-Dew spread
CeilingNone
Temp32°C (ISA +17)
Dew Point16°C (38% RH)
Heat Index31.9°C
QNH1008 hPa
Density Alt2,372 ft
Elevation16 ft
Report Wrong Elevation
Raw Report
METAR OMDB 212000Z 03005KT 360V080 CAVOK 32/16 Q1008 NOSIG=

Extra information for OMDB:More info

Metar Taf Metar & Taf Last 4 Metars F.Rules Stats Wind Profile Meteogram Temp Stats Airport Information Weather charts Add Link Nearby VenuesMetar ALERT Operation Metar Decoded Social comments